Decoded Metar for KIXD (OLATHE/INDUSTRIA in KS, USA) (IATA:IXD) | Meteo·Mobile Aviation Weather
aviador You're here:

KIXD Decoded Metar

OLATHE/INDUSTRIA in KS, USA
Report Time2018-09-18 12:53:00
UTC Time2018-09-18 13:55:08
Flight Rules vfr VFR
Wind160° at 06 kt
W.Decomp.*RWY 18: 5.5 kt HW 2.4 kt LCW
RWY 22: 2.6 kt HW 5.4 kt LCW
W.Rank160° ranks 3
Current wind is below 160° avg. (8.5)
Visibility9999 m
Phenomena:N/A
Clouds:N/A
Expected CloudBase > 400 ft AGL from Temp-Dew spread
CeilingNone
Temp22°C (ISA +9)
Dew Point21°C (94% RH)
QNH1016 hPa
Density Alt2,428 ft
Elevation1,122 ft
Report Wrong Elevation
Raw Report
KIXD 181253Z 16006KT 10SM CLR 22/21 A2999 RMK AO2 SLP143
T02220211=

Extra information for KIXD:More info

Metar Taf Metar & Taf Last 4 Metars F.Rules Stats Wind Profile Meteogram Temp Stats Airport Information Weather charts Add Link Nearby VenuesMetar ALERT Operation Metar Decoded Social comments

AIRNAV info for KIXD